Washington, District of Columbia
Traffic Map
Current Weather Conditions
Washington, District of Columbia
Broken Clouds
Broken Clouds
26°
Feels Like: 27°
Wind Chill: 26° Ceiling: 13000
Heat Index: 27° Visibility: 9mi
Dew Point: 22° Wind: 0mph
Humidity: 79% Direction: ° ()
Pressure: 29.99in Gusts: 0mph
Raw Report DataKDCA 220352Z 00000KT 9SM BKN130 BKN150 26/22 A2999 RMK AO2 SLP155 T02560217
Traffic Incident Summary
Active as of:
Severity:
Category:
InformationThere was an issue retrieving the traffic information for this location. Please try a different location or try again shortly.
Advertisements
Track Severe Weather on mobile